Time;durP1;ratioP1;P1;durP2;ratioP2;P2;SDS_P1;SDS_P2;PMS_P1;PMS_P2;Temp;Humidity;BMP_temperature;BMP_pressure;BME280_temperature;BME280_humidity;BME280_pressure;Samples;Min_cycle;Max_cycle;Signal;HPM_P1;HPM_P2
2022/12/07 00:01:50;;;;;;;0.10;0.10;;;;;;;;;;5009018;28;20635;-70
2022/12/07 00:04:18;;;;;;;0.10;0.10;;;;;;;;;;4998669;28;20670;-71
2022/12/07 00:06:46;;;;;;;0.10;0.10;;;;;;;;;;4997206;28;20638;-72
2022/12/07 00:09:15;;;;;;;0.10;0.10;;;;;;;;;;5010694;28;20669;-69
2022/12/07 00:11:44;;;;;;;0.10;0.10;;;;;;;;;;5008564;28;20635;-70
2022/12/07 00:14:13;;;;;;;0.10;0.10;;;;;;;;;;5011400;28;20683;-71
2022/12/07 00:16:40;;;;;;;0.10;0.10;;;;;;;;;;4992768;28;20764;-71
2022/12/07 00:19:07;;;;;;;0.10;0.10;;;;;;;;;;4993158;28;20639;-71
2022/12/07 00:21:35;;;;;;;0.10;0.10;;;;;;;;;;5011469;28;20642;-71
2022/12/07 00:24:02;;;;;;;0.10;0.10;;;;;;;;;;5009219;28;20217;-71
2022/12/07 00:26:31;;;;;;;0.10;0.10;;;;;;;;;;5009352;28;21184;-71
2022/12/07 00:29:03;;;;;;;0.10;0.10;;;;;;;;;;5008757;28;20636;-70
2022/12/07 00:31:33;;;;;;;0.10;0.10;;;;;;;;;;5010348;28;20673;-71
2022/12/07 00:34:00;;;;;;;0.10;0.10;;;;;;;;;;5011812;28;20671;-71
2022/12/07 00:36:28;;;;;;;0.10;0.10;;;;;;;;;;5010018;28;20676;-71
2022/12/07 00:38:55;;;;;;;0.10;0.10;;;;;;;;;;5011184;28;20203;-69
2022/12/07 00:41:23;;;;;;;0.10;0.10;;;;;;;;;;5007787;28;20231;-71
2022/12/07 00:43:51;;;;;;;0.10;0.10;;;;;;;;;;5009723;28;20641;-70
2022/12/07 00:46:21;;;;;;;0.10;0.10;;;;;;;;;;4977827;28;20638;-70
2022/12/07 00:48:49;;;;;;;0.10;0.10;;;;;;;;;;5008690;28;20638;-68
2022/12/07 00:51:17;;;;;;;0.10;0.10;;;;;;;;;;5001103;28;20208;-71
2022/12/07 00:53:44;;;;;;;0.10;0.10;;;;;;;;;;5008586;28;20677;-71
2022/12/07 00:56:14;;;;;;;0.10;0.10;;;;;;;;;;5005235;28;20631;-70
2022/12/07 00:58:41;;;;;;;0.10;0.10;;;;;;;;;;5013222;28;20623;-71
2022/12/07 01:01:10;;;;;;;0.10;0.10;;;;;;;;;;5009877;28;20620;-69
2022/12/07 01:03:39;;;;;;;0.10;0.10;;;;;;;;;;5011100;28;20662;-69
2022/12/07 01:06:06;;;;;;;0.10;0.10;;;;;;;;;;5009031;28;20208;-70
2022/12/07 01:08:33;;;;;;;0.10;0.10;;;;;;;;;;5007117;28;20627;-70
2022/12/07 01:11:01;;;;;;;0.10;0.10;;;;;;;;;;4999430;28;20719;-70
2022/12/07 01:13:29;;;;;;;0.10;0.10;;;;;;;;;;5007153;28;20671;-69
2022/12/07 01:15:59;;;;;;;0.10;0.10;;;;;;;;;;5008991;28;20659;-70
2022/12/07 01:18:26;;;;;;;0.10;0.10;;;;;;;;;;5009503;28;20687;-71
2022/12/07 01:21:02;;;;;;;0.10;0.10;;;;;;;;;;5008364;28;20630;-71
2022/12/07 01:23:30;;;;;;;0.10;0.10;;;;;;;;;;4992897;28;20651;-69
2022/12/07 01:25:57;;;;;;;0.10;0.10;;;;;;;;;;4975362;28;20635;-71
2022/12/07 01:28:25;;;;;;;0.10;0.10;;;;;;;;;;5004429;28;20632;-71
2022/12/07 01:30:59;;;;;;;0.10;0.10;;;;;;;;;;5007507;28;20635;-71
2022/12/07 01:33:27;;;;;;;0.10;0.10;;;;;;;;;;5014146;28;20661;-69
2022/12/07 01:35:55;;;;;;;0.10;0.10;;;;;;;;;;5010450;28;20656;-69
2022/12/07 01:38:23;;;;;;;0.10;0.10;;;;;;;;;;5018194;28;20630;-71
2022/12/07 01:40:55;;;;;;;0.10;0.10;;;;;;;;;;5011894;28;20630;-70
2022/12/07 01:43:24;;;;;;;0.08;0.08;;;;;;;;;;5013600;28;20666;-71
2022/12/07 01:45:51;;;;;;;0.10;0.10;;;;;;;;;;4997089;28;20196;-70
2022/12/07 01:48:20;;;;;;;0.10;0.10;;;;;;;;;;5013352;28;20627;-71
2022/12/07 01:50:49;;;;;;;0.10;0.10;;;;;;;;;;5010046;28;20645;-71
2022/12/07 01:53:18;;;;;;;0.10;0.10;;;;;;;;;;4997506;28;20670;-70
2022/12/07 01:55:48;;;;;;;0.10;0.10;;;;;;;;;;4996210;28;20663;-72
2022/12/07 01:58:16;;;;;;;0.10;0.10;;;;;;;;;;5011085;28;20642;-70
2022/12/07 02:00:43;;;;;;;0.10;0.10;;;;;;;;;;5000110;28;20632;-71
2022/12/07 02:03:12;;;;;;;0.10;0.10;;;;;;;;;;4997666;28;20653;-70
2022/12/07 02:05:42;;;;;;;0.10;0.10;;;;;;;;;;4993677;28;20626;-71
2022/12/07 02:08:09;;;;;;;0.10;0.10;;;;;;;;;;4998219;28;21215;-72
2022/12/07 02:10:36;;;;;;;0.10;0.10;;;;;;;;;;4999035;28;20635;-71
2022/12/07 02:13:07;;;;;;;0.10;0.10;;;;;;;;;;5011326;28;20666;-70
2022/12/07 02:15:38;;;;;;;0.10;0.10;;;;;;;;;;5008448;28;21049;-72
2022/12/07 02:18:09;;;;;;;0.10;0.10;;;;;;;;;;4982072;28;20645;-72
2022/12/07 02:20:41;;;;;;;0.10;0.10;;;;;;;;;;5013739;28;20630;-70
2022/12/07 02:23:29;;;;;;;0.10;0.10;;;;;;;;;;4999113;28;20722;-69
2022/12/07 02:26:05;;;;;;;0.10;0.10;;;;;;;;;;5012550;28;20677;-69
2022/12/07 02:28:36;;;;;;;0.10;0.10;;;;;;;;;;5015674;28;20677;-70
2022/12/07 02:31:07;;;;;;;0.10;0.10;;;;;;;;;;4998921;28;20631;-71
2022/12/07 02:33:37;;;;;;;0.10;0.10;;;;;;;;;;5010274;28;20658;-70
2022/12/07 02:36:08;;;;;;;0.10;0.10;;;;;;;;;;5012505;28;20655;-70
2022/12/07 02:38:38;;;;;;;0.00;0.00;;;;;;;;;;5009540;28;20639;-71
2022/12/07 02:41:07;;;;;;;0.00;0.00;;;;;;;;;;4998975;28;20618;-70
2022/12/07 02:43:36;;;;;;;0.10;0.10;;;;;;;;;;4996879;28;21106;-71
2022/12/07 02:46:07;;;;;;;0.10;0.10;;;;;;;;;;5015589;28;20599;-70
2022/12/07 02:48:35;;;;;;;0.10;0.10;;;;;;;;;;4980440;28;20630;-70
2022/12/07 02:51:02;;;;;;;0.10;0.10;;;;;;;;;;4997271;28;20628;-70
2022/12/07 02:53:30;;;;;;;0.00;0.00;;;;;;;;;;5010339;28;20679;-72
2022/12/07 02:55:57;;;;;;;0.10;0.10;;;;;;;;;;5009717;28;20728;-71
2022/12/07 02:58:30;;;;;;;0.10;0.10;;;;;;;;;;4999168;28;20631;-71
2022/12/07 03:01:10;;;;;;;0.10;0.10;;;;;;;;;;4998165;28;20659;-70
2022/12/07 03:03:39;;;;;;;0.10;0.10;;;;;;;;;;4999362;28;20646;-70
2022/12/07 03:06:10;;;;;;;0.10;0.10;;;;;;;;;;4997429;28;20634;-71
2022/12/07 03:08:45;;;;;;;0.10;0.10;;;;;;;;;;5007116;28;20624;-71
2022/12/07 03:11:15;;;;;;;0.10;0.10;;;;;;;;;;5002179;28;20634;-71
2022/12/07 03:13:44;;;;;;;0.10;0.10;;;;;;;;;;5009363;28;20724;-69
2022/12/07 03:16:15;;;;;;;0.10;0.10;;;;;;;;;;4982301;28;20659;-71
2022/12/07 03:18:46;;;;;;;0.10;0.10;;;;;;;;;;5000395;28;20642;-70
2022/12/07 03:21:16;;;;;;;0.10;0.10;;;;;;;;;;5009339;28;20645;-70
2022/12/07 03:23:46;;;;;;;0.10;0.10;;;;;;;;;;4998736;28;20656;-69
2022/12/07 03:26:16;;;;;;;0.10;0.10;;;;;;;;;;5012351;28;20619;-70
2022/12/07 03:28:45;;;;;;;0.10;0.10;;;;;;;;;;4993792;28;20627;-69
2022/12/07 03:31:15;;;;;;;0.10;0.10;;;;;;;;;;4997848;28;20762;-69
2022/12/07 03:33:49;;;;;;;0.10;0.10;;;;;;;;;;4996458;28;20227;-69
2022/12/07 03:36:18;;;;;;;0.10;0.10;;;;;;;;;;4996779;28;20668;-69
2022/12/07 03:38:47;;;;;;;0.00;0.00;;;;;;;;;;5012910;28;20619;-70
2022/12/07 03:41:19;;;;;;;0.10;0.10;;;;;;;;;;4996661;28;20631;-70
2022/12/07 03:43:46;;;;;;;0.10;0.10;;;;;;;;;;4995923;28;20656;-71
2022/12/07 03:46:19;;;;;;;0.10;0.10;;;;;;;;;;4999055;28;21274;-70
2022/12/07 03:48:51;;;;;;;0.10;0.10;;;;;;;;;;5009293;28;20733;-73
2022/12/07 03:51:21;;;;;;;0.10;0.10;;;;;;;;;;4998627;28;20632;-71
2022/12/07 03:53:52;;;;;;;0.10;0.10;;;;;;;;;;4997188;28;20702;-72
2022/12/07 03:56:20;;;;;;;0.10;0.10;;;;;;;;;;4998441;28;20663;-72
2022/12/07 03:58:48;;;;;;;0.10;0.10;;;;;;;;;;4996437;28;20632;-69
2022/12/07 04:01:15;;;;;;;0.10;0.10;;;;;;;;;;4997275;28;20635;-70
2022/12/07 04:03:42;;;;;;;0.10;0.10;;;;;;;;;;4992115;28;20667;-68
2022/12/07 04:06:11;;;;;;;0.10;0.10;;;;;;;;;;5009205;28;20638;-69
2022/12/07 04:08:38;;;;;;;0.10;0.10;;;;;;;;;;4997655;28;20643;-69
2022/12/07 04:11:06;;;;;;;0.10;0.10;;;;;;;;;;4994694;28;20627;-69
2022/12/07 04:14:18;;;;;;;0.10;0.10;;;;;;;;;;5005405;28;20659;-68
2022/12/07 04:16:21;;;;;;;0.10;0.10;;;;;;;;;;5009864;28;20758;-68
2022/12/07 04:18:49;;;;;;;0.10;0.10;;;;;;;;;;5010290;28;20638;-70
2022/12/07 04:21:17;;;;;;;0.00;0.00;;;;;;;;;;4995556;28;20662;-69
2022/12/07 04:23:44;;;;;;;0.10;0.10;;;;;;;;;;5004730;28;20663;-71
2022/12/07 04:26:12;;;;;;;0.10;0.10;;;;;;;;;;5006482;28;20639;-69
2022/12/07 04:28:39;;;;;;;0.10;0.10;;;;;;;;;;5009555;28;20638;-71
2022/12/07 04:31:06;;;;;;;0.10;0.10;;;;;;;;;;5007436;28;20722;-70
2022/12/07 04:33:33;;;;;;;0.10;0.10;;;;;;;;;;5007659;28;20653;-69
2022/12/07 04:36:00;;;;;;;0.10;0.10;;;;;;;;;;5009345;28;20728;-70
2022/12/07 04:38:29;;;;;;;0.10;0.10;;;;;;;;;;5010549;28;20634;-69
2022/12/07 04:40:56;;;;;;;0.10;0.10;;;;;;;;;;5008147;28;20692;-68
2022/12/07 04:43:23;;;;;;;0.10;0.10;;;;;;;;;;4999554;28;20671;-70
2022/12/07 04:45:51;;;;;;;0.03;0.03;;;;;;;;;;5007349;28;20622;-70
2022/12/07 04:48:18;;;;;;;0.10;0.10;;;;;;;;;;5010513;28;20688;-72
2022/12/07 04:50:45;;;;;;;0.10;0.10;;;;;;;;;;4993640;28;20628;-72
2022/12/07 04:53:12;;;;;;;0.10;0.10;;;;;;;;;;5010049;28;20985;-70
2022/12/07 04:55:41;;;;;;;0.10;0.10;;;;;;;;;;5006284;28;20659;-70
2022/12/07 04:58:08;;;;;;;0.00;0.00;;;;;;;;;;5011390;28;20654;-71
2022/12/07 05:00:35;;;;;;;0.10;0.10;;;;;;;;;;5008082;28;20619;-72
2022/12/07 05:03:02;;;;;;;0.00;0.00;;;;;;;;;;5005599;28;20663;-71
2022/12/07 05:05:29;;;;;;;0.10;0.10;;;;;;;;;;4997237;28;20635;-70
2022/12/07 05:07:57;;;;;;;0.10;0.10;;;;;;;;;;5013003;28;20623;-70
2022/12/07 05:10:24;;;;;;;0.10;0.10;;;;;;;;;;5014938;28;20638;-72
2022/12/07 05:12:52;;;;;;;0.10;0.10;;;;;;;;;;5015126;28;20658;-70
2022/12/07 05:15:20;;;;;;;0.10;0.10;;;;;;;;;;5003564;28;20635;-70
2022/12/07 05:17:47;;;;;;;0.10;0.10;;;;;;;;;;5011437;28;21097;-69
2022/12/07 05:20:14;;;;;;;0.10;0.10;;;;;;;;;;5012594;28;20639;-70
2022/12/07 05:22:41;;;;;;;0.10;0.10;;;;;;;;;;5011510;28;20728;-70
2022/12/07 05:25:09;;;;;;;0.10;0.10;;;;;;;;;;5018474;28;20606;-71
2022/12/07 05:27:36;;;;;;;0.10;0.10;;;;;;;;;;5014902;28;20653;-70
2022/12/07 05:30:05;;;;;;;0.10;0.10;;;;;;;;;;4998736;28;20620;-69
2022/12/07 05:32:33;;;;;;;0.10;0.10;;;;;;;;;;5015927;28;20610;-69
2022/12/07 05:35:00;;;;;;;0.10;0.10;;;;;;;;;;5000462;28;20618;-70
2022/12/07 05:37:27;;;;;;;0.07;0.07;;;;;;;;;;4993885;28;20716;-70
2022/12/07 05:39:54;;;;;;;0.10;0.10;;;;;;;;;;5014875;28;20664;-69
2022/12/07 05:42:22;;;;;;;0.10;0.10;;;;;;;;;;5016738;28;20618;-68
2022/12/07 05:44:49;;;;;;;0.10;0.10;;;;;;;;;;5013618;28;20721;-70
2022/12/07 05:47:17;;;;;;;0.10;0.10;;;;;;;;;;5018737;28;20630;-68
2022/12/07 05:49:45;;;;;;;0.10;0.10;;;;;;;;;;4996757;28;20622;-70
2022/12/07 05:52:12;;;;;;;0.10;0.10;;;;;;;;;;5016095;28;20649;-70
2022/12/07 05:54:39;;;;;;;0.10;0.10;;;;;;;;;;4998935;28;20643;-70
2022/12/07 05:57:06;;;;;;;0.10;0.10;;;;;;;;;;5016665;28;20655;-70
2022/12/07 05:59:32;;;;;;;0.10;0.10;;;;;;;;;;5011702;28;20630;-69
2022/12/07 06:02:00;;;;;;;0.10;0.10;;;;;;;;;;5013384;28;20631;-70
2022/12/07 06:04:30;;;;;;;0.10;0.10;;;;;;;;;;5017963;28;20665;-70
2022/12/07 06:06:58;;;;;;;0.10;0.10;;;;;;;;;;4999082;28;20626;-69
2022/12/07 06:09:26;;;;;;;0.10;0.10;;;;;;;;;;5004237;28;20887;-70
2022/12/07 06:14:39;;;;;;;0.10;0.10;;;;;;;;;;5011802;28;20614;-71
2022/12/07 06:17:06;;;;;;;0.10;0.10;;;;;;;;;;5016524;28;20650;-69
2022/12/07 06:19:35;;;;;;;0.10;0.10;;;;;;;;;;5010495;28;20626;-71
2022/12/07 06:22:02;;;;;;;0.10;0.10;;;;;;;;;;5012064;28;20643;-70
2022/12/07 06:24:29;;;;;;;0.10;0.10;;;;;;;;;;5013877;28;20651;-70
2022/12/07 06:26:56;;;;;;;0.10;0.10;;;;;;;;;;4982417;28;20643;-72
2022/12/07 06:29:24;;;;;;;0.10;0.10;;;;;;;;;;5001756;28;20684;-70
2022/12/07 06:31:51;;;;;;;0.10;0.10;;;;;;;;;;4997980;28;20631;-71
2022/12/07 06:34:19;;;;;;;0.10;0.10;;;;;;;;;;5008580;28;20696;-71
2022/12/07 06:36:51;;;;;;;0.00;0.00;;;;;;;;;;5012919;28;20658;-70
2022/12/07 06:39:18;;;;;;;0.10;0.10;;;;;;;;;;5012854;28;20721;-71
2022/12/07 06:41:45;;;;;;;0.10;0.10;;;;;;;;;;4996296;28;20673;-70
2022/12/07 06:44:12;;;;;;;0.10;0.10;;;;;;;;;;5012342;28;20671;-70
2022/12/07 06:46:39;;;;;;;0.10;0.10;;;;;;;;;;5013284;28;20633;-72
2022/12/07 06:49:07;;;;;;;0.10;0.10;;;;;;;;;;4996855;28;20640;-71
2022/12/07 06:51:36;;;;;;;0.10;0.10;;;;;;;;;;4999310;28;20653;-71
2022/12/07 06:54:05;;;;;;;0.10;0.10;;;;;;;;;;5000482;28;20678;-69
2022/12/07 06:56:32;;;;;;;0.10;0.10;;;;;;;;;;4996150;28;20654;-69
2022/12/07 06:58:59;;;;;;;0.10;0.10;;;;;;;;;;5012830;28;20615;-69
2022/12/07 07:01:27;;;;;;;0.10;0.10;;;;;;;;;;5009994;28;20631;-70
2022/12/07 07:03:55;;;;;;;0.10;0.10;;;;;;;;;;5008550;28;20659;-71
2022/12/07 07:06:22;;;;;;;0.10;0.10;;;;;;;;;;4999431;28;20631;-70
2022/12/07 07:08:49;;;;;;;0.10;0.10;;;;;;;;;;4999741;28;20632;-71
2022/12/07 07:11:18;;;;;;;0.10;0.10;;;;;;;;;;5038883;22;20701;-69
2022/12/07 07:13:45;;;;;;;0.10;0.10;;;;;;;;;;5012171;28;20653;-70
2022/12/07 07:16:12;;;;;;;0.10;0.10;;;;;;;;;;5039867;28;20627;-71
2022/12/07 07:18:40;;;;;;;0.10;0.10;;;;;;;;;;5024797;28;20681;-70
2022/12/07 07:21:07;;;;;;;0.10;0.10;;;;;;;;;;5039228;28;20591;-70
2022/12/07 07:23:34;;;;;;;0.00;0.00;;;;;;;;;;5041045;28;20669;-71
2022/12/07 07:26:01;;;;;;;0.10;0.10;;;;;;;;;;5024339;28;20657;-70
2022/12/07 07:28:30;;;;;;;0.10;0.10;;;;;;;;;;5042137;28;20667;-69
2022/12/07 07:30:57;;;;;;;0.10;0.10;;;;;;;;;;5040826;28;20667;-71
2022/12/07 07:33:24;;;;;;;0.10;0.10;;;;;;;;;;5027542;28;20670;-74
2022/12/07 07:35:51;;;;;;;0.10;0.10;;;;;;;;;;5026914;28;20642;-70
2022/12/07 07:38:19;;;;;;;0.10;0.10;;;;;;;;;;5028544;28;20633;-70
2022/12/07 07:40:46;;;;;;;0.10;0.10;;;;;;;;;;5027146;28;20622;-71
2022/12/07 07:43:13;;;;;;;0.10;0.10;;;;;;;;;;5030925;28;20789;-70
2022/12/07 07:45:42;;;;;;;0.10;0.10;;;;;;;;;;5021748;28;20622;-70
2022/12/07 07:48:09;;;;;;;0.10;0.10;;;;;;;;;;5021518;28;20622;-68
2022/12/07 07:50:37;;;;;;;0.10;0.10;;;;;;;;;;5025711;28;20633;-67
2022/12/07 07:53:04;;;;;;;0.10;0.10;;;;;;;;;;5022446;28;20661;-70
2022/12/07 07:55:31;;;;;;;0.10;0.10;;;;;;;;;;5025149;28;20634;-70
2022/12/07 07:57:58;;;;;;;0.10;0.10;;;;;;;;;;5025819;28;20668;-71
2022/12/07 08:00:26;;;;;;;0.10;0.10;;;;;;;;;;5041687;28;20646;-68
2022/12/07 08:02:54;;;;;;;0.10;0.10;;;;;;;;;;5040135;28;20660;-71
2022/12/07 08:05:22;;;;;;;0.10;0.10;;;;;;;;;;5024388;28;20634;-70
2022/12/07 08:07:49;;;;;;;0.10;0.10;;;;;;;;;;5023690;28;20630;-72
2022/12/07 08:10:16;;;;;;;0.10;0.10;;;;;;;;;;5041560;28;20625;-71
2022/12/07 08:15:30;;;;;;;0.10;0.10;;;;;;;;;;5021330;28;20759;-71
2022/12/07 08:17:59;;;;;;;0.10;0.10;;;;;;;;;;5039375;28;20669;-71
2022/12/07 08:20:26;;;;;;;0.10;0.10;;;;;;;;;;5043066;28;20638;-72
2022/12/07 08:22:54;;;;;;;0.10;0.10;;;;;;;;;;5039177;28;21024;-70
2022/12/07 08:25:21;;;;;;;0.10;0.10;;;;;;;;;;5023784;28;20634;-70
2022/12/07 08:27:49;;;;;;;0.10;0.10;;;;;;;;;;5040274;28;20680;-70
2022/12/07 08:30:17;;;;;;;0.10;0.10;;;;;;;;;;5022908;28;20733;-70
2022/12/07 08:32:45;;;;;;;0.10;0.10;;;;;;;;;;5023276;28;20693;-71
2022/12/07 08:35:15;;;;;;;0.10;0.10;;;;;;;;;;5039889;28;20638;-72
2022/12/07 08:37:42;;;;;;;0.10;0.10;;;;;;;;;;5021144;28;20642;-69
2022/12/07 08:40:14;;;;;;;0.10;0.10;;;;;;;;;;5023901;28;20660;-66
2022/12/07 08:42:44;;;;;;;0.10;0.10;;;;;;;;;;5040203;28;20646;-70
2022/12/07 08:45:13;;;;;;;0.10;0.10;;;;;;;;;;5020488;28;20703;-69
2022/12/07 08:47:43;;;;;;;0.10;0.10;;;;;;;;;;5043743;28;20610;-69
2022/12/07 08:50:11;;;;;;;0.10;0.10;;;;;;;;;;5042919;28;20647;-68
2022/12/07 08:52:41;;;;;;;0.10;0.10;;;;;;;;;;5024526;28;20670;-69
2022/12/07 08:55:09;;;;;;;0.00;0.00;;;;;;;;;;5022951;28;21044;-72
2022/12/07 08:57:36;;;;;;;0.10;0.10;;;;;;;;;;5038842;28;20654;-69
2022/12/07 09:00:04;;;;;;;0.10;0.10;;;;;;;;;;5040671;28;20601;-71
2022/12/07 09:02:31;;;;;;;0.10;0.10;;;;;;;;;;5042499;28;20641;-69
2022/12/07 09:04:59;;;;;;;0.10;0.10;;;;;;;;;;5020039;28;20677;-71
2022/12/07 09:07:26;;;;;;;0.10;0.10;;;;;;;;;;5024220;28;20644;-69
2022/12/07 09:09:55;;;;;;;0.10;0.10;;;;;;;;;;5027188;28;20633;-70
2022/12/07 09:12:22;;;;;;;0.10;0.10;;;;;;;;;;5037870;28;20697;-69
2022/12/07 09:14:50;;;;;;;0.10;0.10;;;;;;;;;;5040688;28;20589;-71
2022/12/07 09:17:17;;;;;;;0.10;0.10;;;;;;;;;;5041519;28;20653;-70
2022/12/07 09:19:44;;;;;;;0.10;0.10;;;;;;;;;;5037431;28;20627;-71
2022/12/07 09:22:11;;;;;;;0.10;0.10;;;;;;;;;;5038979;28;20712;-70
2022/12/07 09:24:38;;;;;;;0.10;0.10;;;;;;;;;;5041437;28;20665;-69
2022/12/07 09:27:07;;;;;;;0.10;0.10;;;;;;;;;;5041584;28;20659;-71
2022/12/07 09:29:34;;;;;;;0.10;0.10;;;;;;;;;;5038166;28;20703;-70
2022/12/07 09:32:01;;;;;;;0.10;0.10;;;;;;;;;;5041785;28;20654;-71
2022/12/07 09:34:28;;;;;;;0.10;0.10;;;;;;;;;;5040960;28;20625;-70
2022/12/07 09:36:56;;;;;;;0.10;0.10;;;;;;;;;;5024439;28;20661;-71
2022/12/07 09:39:23;;;;;;;0.10;0.10;;;;;;;;;;5026866;28;20633;-71
2022/12/07 09:41:50;;;;;;;0.10;0.10;;;;;;;;;;5024224;28;20669;-73
2022/12/07 09:44:22;;;;;;;0.10;0.10;;;;;;;;;;5023531;28;20673;-70
2022/12/07 09:46:50;;;;;;;0.10;0.10;;;;;;;;;;5023589;28;20626;-70
2022/12/07 09:49:19;;;;;;;0.13;0.13;;;;;;;;;;5028052;28;20641;-71
2022/12/07 09:51:46;;;;;;;0.10;0.10;;;;;;;;;;5040237;28;20707;-71
2022/12/07 09:54:14;;;;;;;0.10;0.10;;;;;;;;;;5043624;28;20650;-71
2022/12/07 09:56:41;;;;;;;0.10;0.10;;;;;;;;;;5039510;28;20675;-70
2022/12/07 09:59:14;;;;;;;0.10;0.10;;;;;;;;;;5024882;28;20696;-71
2022/12/07 10:01:42;;;;;;;0.10;0.10;;;;;;;;;;5031960;28;20657;-69
2022/12/07 10:04:12;;;;;;;0.10;0.10;;;;;;;;;;5027340;28;20643;-69
2022/12/07 10:06:40;;;;;;;0.10;0.10;;;;;;;;;;5032209;28;20625;-71
2022/12/07 10:09:10;;;;;;;0.10;0.10;;;;;;;;;;5042643;28;20610;-71
2022/12/07 10:11:52;;;;;;;0.10;0.10;;;;;;;;;;5043327;28;20716;-68
2022/12/07 10:14:20;;;;;;;0.00;0.00;;;;;;;;;;5041573;28;20652;-71
2022/12/07 10:16:49;;;;;;;0.10;0.10;;;;;;;;;;5044814;28;20624;-72
2022/12/07 10:19:21;;;;;;;0.10;0.10;;;;;;;;;;5025869;28;20629;-70
2022/12/07 10:22:01;;;;;;;0.10;0.10;;;;;;;;;;5047130;28;20657;-70
2022/12/07 10:24:28;;;;;;;0.10;0.10;;;;;;;;;;5027457;28;20766;-72
2022/12/07 10:26:55;;;;;;;0.10;0.10;;;;;;;;;;5025551;28;20623;-68
2022/12/07 10:29:24;;;;;;;0.10;0.10;;;;;;;;;;5046880;28;20616;-70
2022/12/07 10:31:54;;;;;;;0.10;0.10;;;;;;;;;;5027750;28;20774;-72
2022/12/07 10:34:24;;;;;;;0.10;0.10;;;;;;;;;;5041917;28;20645;-71
2022/12/07 10:36:51;;;;;;;0.10;0.10;;;;;;;;;;5032613;28;20673;-70
2022/12/07 10:39:19;;;;;;;0.00;0.00;;;;;;;;;;5042213;28;20630;-70
2022/12/07 10:41:57;;;;;;;0.10;0.10;;;;;;;;;;5041972;28;20653;-71
2022/12/07 10:44:25;;;;;;;0.10;0.10;;;;;;;;;;5023558;28;20738;-70
2022/12/07 10:47:02;;;;;;;0.10;0.10;;;;;;;;;;5041668;28;20642;-70
2022/12/07 10:49:59;;;;;;;0.10;0.10;;;;;;;;;;5044541;28;20647;-70
2022/12/07 10:52:42;;;;;;;0.10;0.10;;;;;;;;;;4997638;28;20687;-70
2022/12/07 10:55:13;;;;;;;0.10;0.10;;;;;;;;;;5017879;28;20645;-68
2022/12/07 10:57:49;;;;;;;0.10;0.10;;;;;;;;;;5025795;28;20662;-69
2022/12/07 11:00:19;;;;;;;0.10;0.10;;;;;;;;;;5040778;28;20637;-71
2022/12/07 11:03:01;;;;;;;0.10;0.10;;;;;;;;;;5026152;28;21090;-69
2022/12/07 11:05:33;;;;;;;0.10;0.10;;;;;;;;;;5039953;28;20641;-69
2022/12/07 11:08:03;;;;;;;0.10;0.10;;;;;;;;;;5042820;28;20669;-68
2022/12/07 11:10:34;;;;;;;0.10;0.10;;;;;;;;;;5022877;28;20633;-68
2022/12/07 11:13:11;;;;;;;0.10;0.10;;;;;;;;;;5041177;28;20674;-70
2022/12/07 11:15:42;;;;;;;0.10;0.10;;;;;;;;;;5041912;28;20637;-68
2022/12/07 11:18:13;;;;;;;0.10;0.10;;;;;;;;;;5042457;28;20654;-69
2022/12/07 11:20:44;;;;;;;0.10;0.10;;;;;;;;;;5040145;28;20634;-68
2022/12/07 11:23:18;;;;;;;0.10;0.10;;;;;;;;;;5027266;28;20681;-68
2022/12/07 11:25:51;;;;;;;0.10;0.10;;;;;;;;;;5028722;28;20661;-68
2022/12/07 11:28:24;;;;;;;0.10;0.10;;;;;;;;;;5027494;28;20633;-68
2022/12/07 11:30:58;;;;;;;0.10;0.10;;;;;;;;;;5038776;28;20627;-68
2022/12/07 11:33:29;;;;;;;0.10;0.10;;;;;;;;;;5041733;28;20658;-69
2022/12/07 11:36:04;;;;;;;0.10;0.10;;;;;;;;;;5026973;28;20622;-68
2022/12/07 11:38:36;;;;;;;0.10;0.10;;;;;;;;;;5033238;28;20654;-68
2022/12/07 11:41:13;;;;;;;0.10;0.10;;;;;;;;;;5025160;28;20629;-69
2022/12/07 11:43:48;;;;;;;0.10;0.10;;;;;;;;;;5019858;28;20745;-71
2022/12/07 11:46:17;;;;;;;0.00;0.00;;;;;;;;;;5038407;28;21470;-68
2022/12/07 11:48:47;;;;;;;0.10;0.10;;;;;;;;;;5039459;28;20629;-68
2022/12/07 11:51:16;;;;;;;0.10;0.10;;;;;;;;;;5025734;28;20631;-68
2022/12/07 11:53:47;;;;;;;0.10;0.10;;;;;;;;;;5031092;28;20646;-68
2022/12/07 11:56:15;;;;;;;0.10;0.10;;;;;;;;;;5028702;28;21185;-68
2022/12/07 11:58:50;;;;;;;0.10;0.10;;;;;;;;;;5023040;28;20661;-69
2022/12/07 12:01:37;;;;;;;0.10;0.10;;;;;;;;;;5026845;28;20634;-68
2022/12/07 12:04:09;;;;;;;0.10;0.10;;;;;;;;;;5024706;28;20632;-68
2022/12/07 12:06:37;;;;;;;0.10;0.10;;;;;;;;;;5035604;28;20634;-69
2022/12/07 12:09:07;;;;;;;0.10;0.10;;;;;;;;;;5040174;28;20628;-69
2022/12/07 12:11:42;;;;;;;0.10;0.10;;;;;;;;;;5022328;28;20729;-69
2022/12/07 12:14:19;;;;;;;0.10;0.10;;;;;;;;;;5021288;28;20641;-68
2022/12/07 12:16:54;;;;;;;0.10;0.10;;;;;;;;;;5039305;28;20629;-69
2022/12/07 12:19:26;;;;;;;0.10;0.10;;;;;;;;;;5028158;28;20668;-69
2022/12/07 12:21:58;;;;;;;0.10;0.10;;;;;;;;;;5021156;28;20661;-68
2022/12/07 12:24:27;;;;;;;0.10;0.10;;;;;;;;;;5040035;28;20630;-69
2022/12/07 12:26:57;;;;;;;0.10;0.10;;;;;;;;;;5022773;28;20629;-69
2022/12/07 12:29:29;;;;;;;0.10;0.10;;;;;;;;;;5042028;28;20651;-69
2022/12/07 12:32:08;;;;;;;0.10;0.10;;;;;;;;;;5029771;28;20677;-68
2022/12/07 12:34:40;;;;;;;0.10;0.10;;;;;;;;;;5024619;28;20648;-69
2022/12/07 12:37:36;;;;;;;0.10;0.10;;;;;;;;;;5025153;28;20642;-68
2022/12/07 12:40:22;;;;;;;0.00;0.00;;;;;;;;;;5028049;28;20633;-68
2022/12/07 12:42:50;;;;;;;0.10;0.10;;;;;;;;;;5042135;28;20672;-69
2022/12/07 12:45:20;;;;;;;0.00;0.00;;;;;;;;;;5023973;28;20717;-70
2022/12/07 12:47:55;;;;;;;0.10;0.10;;;;;;;;;;5023035;28;20633;-69
2022/12/07 12:50:24;;;;;;;0.10;0.10;;;;;;;;;;5040589;28;20630;-70
2022/12/07 12:52:55;;;;;;;0.10;0.10;;;;;;;;;;5021891;28;20661;-69
2022/12/07 12:55:46;;;;;;;0.10;0.10;;;;;;;;;;5023938;28;20653;-70
2022/12/07 12:58:29;;;;;;;0.10;0.10;;;;;;;;;;5010605;28;20664;-70
2022/12/07 13:01:12;;;;;;;0.00;0.00;;;;;;;;;;5024639;28;20684;-69
2022/12/07 13:03:39;;;;;;;0.10;0.10;;;;;;;;;;5025474;28;20661;-69
2022/12/07 13:06:20;;;;;;;0.10;0.10;;;;;;;;;;5037949;28;20622;-72
2022/12/07 13:08:48;;;;;;;0.00;0.00;;;;;;;;;;5023874;28;20638;-70
2022/12/07 13:11:20;;;;;;;0.10;0.10;;;;;;;;;;5022352;28;20630;-70
2022/12/07 13:13:47;;;;;;;0.10;0.10;;;;;;;;;;5020350;28;20627;-69
2022/12/07 13:16:33;;;;;;;0.10;0.10;;;;;;;;;;5020156;28;20646;-69
2022/12/07 13:19:01;;;;;;;0.10;0.10;;;;;;;;;;5024023;28;20727;-69
2022/12/07 13:21:45;;;;;;;0.10;0.10;;;;;;;;;;5025835;28;20629;-70
2022/12/07 13:24:14;;;;;;;0.10;0.10;;;;;;;;;;5035660;28;20642;-69
2022/12/07 13:26:44;;;;;;;0.10;0.10;;;;;;;;;;5021889;28;20656;-69
2022/12/07 13:29:13;;;;;;;0.10;0.10;;;;;;;;;;5027593;28;20647;-71
2022/12/07 13:31:42;;;;;;;0.10;0.10;;;;;;;;;;5025752;28;20751;-70
2022/12/07 13:34:24;;;;;;;0.10;0.10;;;;;;;;;;5027687;28;20662;-70
2022/12/07 13:36:52;;;;;;;0.10;0.10;;;;;;;;;;5025853;28;20626;-69
2022/12/07 13:39:22;;;;;;;0.10;0.10;;;;;;;;;;5027859;28;20662;-71
2022/12/07 13:41:51;;;;;;;0.10;0.10;;;;;;;;;;5026911;28;20655;-71
2022/12/07 13:44:20;;;;;;;0.00;0.00;;;;;;;;;;5030294;28;20665;-71
2022/12/07 13:46:51;;;;;;;0.10;0.10;;;;;;;;;;5026975;28;20630;-70
2022/12/07 13:49:19;;;;;;;0.10;0.10;;;;;;;;;;5033638;28;20634;-70
2022/12/07 13:51:47;;;;;;;0.00;0.00;;;;;;;;;;5033777;28;20680;-71
2022/12/07 13:54:15;;;;;;;0.10;0.10;;;;;;;;;;5024495;28;20634;-70
2022/12/07 13:56:45;;;;;;;0.10;0.10;;;;;;;;;;5029781;28;20633;-70
2022/12/07 13:59:15;;;;;;;0.10;0.10;;;;;;;;;;5032652;28;20685;-70
2022/12/07 14:01:43;;;;;;;0.10;0.10;;;;;;;;;;5031163;28;20661;-69
2022/12/07 14:04:21;;;;;;;0.10;0.10;;;;;;;;;;5029706;28;20730;-74
2022/12/07 14:06:50;;;;;;;0.10;0.10;;;;;;;;;;5032495;28;20667;-69
2022/12/07 14:09:22;;;;;;;0.10;0.10;;;;;;;;;;5042899;28;20637;-70
2022/12/07 14:11:51;;;;;;;0.10;0.10;;;;;;;;;;5043172;28;20653;-70
2022/12/07 14:14:19;;;;;;;0.10;0.10;;;;;;;;;;5046171;28;20620;-68
2022/12/07 14:16:57;;;;;;;0.10;0.10;;;;;;;;;;5030197;28;20629;-68
2022/12/07 14:19:39;;;;;;;0.00;0.00;;;;;;;;;;5044240;28;20665;-70
2022/12/07 14:22:10;;;;;;;0.10;0.10;;;;;;;;;;5042711;28;20732;-72
2022/12/07 14:24:43;;;;;;;0.07;0.07;;;;;;;;;;5031386;28;20626;-68
2022/12/07 14:27:19;;;;;;;0.10;0.10;;;;;;;;;;5024984;28;20630;-70
2022/12/07 14:29:47;;;;;;;0.10;0.10;;;;;;;;;;5042037;28;20624;-68
2022/12/07 14:32:24;;;;;;;0.10;0.10;;;;;;;;;;5038752;28;20665;-71
2022/12/07 14:34:55;;;;;;;0.10;0.10;;;;;;;;;;5019259;28;20625;-69
2022/12/07 14:37:22;;;;;;;0.10;0.10;;;;;;;;;;5042621;28;20626;-70
2022/12/07 14:39:49;;;;;;;0.00;0.00;;;;;;;;;;5024369;28;20654;-70
2022/12/07 14:42:17;;;;;;;0.10;0.10;;;;;;;;;;5045881;28;20644;-71
2022/12/07 14:44:45;;;;;;;0.10;0.10;;;;;;;;;;5032815;28;20626;-69
2022/12/07 14:47:13;;;;;;;0.10;0.10;;;;;;;;;;5031985;28;20636;-71
2022/12/07 14:49:40;;;;;;;0.10;0.10;;;;;;;;;;5042891;28;20629;-69
2022/12/07 14:52:11;;;;;;;0.00;0.00;;;;;;;;;;5046578;28;20653;-69
2022/12/07 14:54:38;;;;;;;0.10;0.10;;;;;;;;;;5045898;28;20697;-68
2022/12/07 14:57:06;;;;;;;0.10;0.10;;;;;;;;;;5046046;28;20649;-71
2022/12/07 14:59:33;;;;;;;0.10;0.10;;;;;;;;;;5026089;28;20672;-70
2022/12/07 15:02:02;;;;;;;0.10;0.10;;;;;;;;;;5028254;28;20747;-70
2022/12/07 15:04:29;;;;;;;0.10;0.10;;;;;;;;;;5042460;28;20639;-70